Time;durP1;ratioP1;P1;durP2;ratioP2;P2;SDS_P1;SDS_P2;PMS_P1;PMS_P2;Temp;Humidity;BMP_temperature;BMP_pressure;BME280_temperature;BME280_humidity;BME280_pressure;Samples;Min_cycle;Max_cycle;Signal;HPM_P1;HPM_P2
2022/03/25 01:16:46;;;;;;;;;50.75;37.00;;;;;15.38;59.30;102363.94;6329494;22;46278;-91
2022/03/25 01:19:12;;;;;;;;;52.00;38.50;;;;;15.29;59.52;102359.97;6332437;22;45547;-92
2022/03/25 01:21:37;;;;;;;;;50.00;37.75;;;;;15.31;59.92;102365.34;6358747;22;47935;-92
2022/03/25 01:24:04;;;;;;;;;56.25;39.75;;;;;15.21;59.58;102352.44;6333590;22;45394;-92
2022/03/25 01:26:30;;;;;;;;;48.25;40.00;;;;;15.12;59.61;102345.88;6358851;22;45328;-92
2022/03/25 01:28:55;;;;;;;;;49.75;37.25;;;;;15.15;59.39;102353.94;6357833;22;45414;-92
2022/03/25 01:31:21;;;;;;;;;50.75;40.50;;;;;15.07;59.49;102335.06;6331976;22;46833;-92
2022/03/25 01:33:47;;;;;;;;;46.75;36.75;;;;;15.16;59.98;102349.56;6329634;22;45458;-92
2022/03/25 01:36:12;;;;;;;;;44.75;38.25;;;;;15.16;60.16;102362.81;6334453;22;45345;-93
2022/03/25 01:38:38;;;;;;;;;41.75;37.00;;;;;14.99;60.04;102332.84;6358526;22;45274;-92
2022/03/25 01:41:03;;;;;;;;;55.50;41.00;;;;;15.11;59.66;102351.97;6358279;22;48057;-92
2022/03/25 01:43:29;;;;;;;;;55.00;41.50;;;;;15.00;59.98;102330.25;6333941;22;45236;-92
2022/03/25 01:45:55;;;;;;;;;45.50;38.25;;;;;15.05;59.70;102349.03;6358403;22;45479;-92
2022/03/25 01:48:23;;;;;;;;;52.00;38.00;;;;;15.05;59.32;102349.03;6334011;22;45268;-92
2022/03/25 01:50:49;;;;;;;;;47.50;37.25;;;;;15.05;59.38;102338.47;6356821;22;48201;-92
2022/03/25 01:53:26;;;;;;;;;50.75;37.25;;;;;15.12;59.33;102343.25;6331730;22;45984;-92
2022/03/25 01:56:01;;;;;;;;;53.25;41.25;;;;;15.13;59.36;102354.69;6358721;22;45507;-91
2022/03/25 01:58:29;;;;;;;;;52.50;39.00;;;;;15.05;60.50;102343.75;6333903;22;45308;-92
2022/03/25 02:00:54;;;;;;;;;52.75;36.50;;;;;14.96;60.20;102337.13;6359139;22;48127;-92
2022/03/25 02:03:20;;;;;;;;;45.00;35.25;;;;;15.01;60.56;102342.66;6335099;22;45295;-92
2022/03/25 02:05:47;;;;;;;;;45.75;38.75;;;;;14.97;60.81;102340.69;6331642;22;45353;-92
2022/03/25 02:08:13;;;;;;;;;47.75;38.00;;;;;14.88;61.15;102332.25;6333472;22;45484;-93
2022/03/25 02:10:39;;;;;;;;;53.25;41.75;;;;;14.83;60.97;102332.91;6333125;22;48498;-92
2022/03/25 02:13:06;;;;;;;;;53.25;41.50;;;;;14.79;61.18;102332.66;6359548;22;45399;-93
2022/03/25 02:15:36;;;;;;;;;42.50;35.50;;;;;14.77;61.80;102326.34;6358459;22;45371;-93
2022/03/25 02:18:05;;;;;;;;;52.00;40.75;;;;;14.71;61.35;102346.38;6359566;22;45346;-92
2022/03/25 02:20:31;;;;;;;;;53.00;40.25;;;;;14.57;61.46;102344.69;6333540;22;46289;-93
2022/03/25 02:22:56;;;;;;;;;46.75;36.75;;;;;14.45;62.32;102332.66;6359739;22;45863;-93
2022/03/25 02:25:26;;;;;;;;;46.00;38.00;;;;;14.45;62.30;102344.94;6359362;22;45356;-93
2022/03/25 02:27:52;;;;;;;;;46.25;36.75;;;;;14.40;63.00;102349.97;6335167;22;45200;-92
2022/03/25 02:30:18;;;;;;;;;51.25;41.75;;;;;14.25;62.91;102337.72;6358293;22;48377;-92
2022/03/25 02:32:44;;;;;;;;;46.50;38.75;;;;;14.18;63.10;102338.19;6359607;22;45456;-93
2022/03/25 02:35:10;;;;;;;;;47.75;37.00;;;;;14.16;63.40;102346.03;6358738;22;45385;-93
2022/03/25 02:37:36;;;;;;;;;51.00;38.25;;;;;14.06;63.67;102335.78;6360611;22;45468;-92
2022/03/25 02:40:02;;;;;;;;;55.50;41.00;;;;;13.97;63.60;102333.53;6359189;22;47326;-93
2022/03/25 02:42:27;;;;;;;;;54.25;40.50;;;;;13.98;64.07;102345.91;6335553;22;45244;-93
2022/03/25 02:44:53;;;;;;;;;7.25;3.50;;;;;13.90;63.77;102334.00;6358842;22;45329;-92
2022/03/25 02:50:30;;;;;;;;;43.50;38.25;;;;;13.88;64.59;102347.13;6239076;22;45350;-92
2022/03/25 02:52:56;;;;;;;;;49.00;38.75;;;;;13.84;64.49;102350.38;6239726;22;45393;-93
2022/03/25 02:55:22;;;;;;;;;54.50;41.50;;;;;13.84;64.61;102353.94;6213341;22;45393;-92
2022/03/25 02:57:48;;;;;;;;;53.00;42.00;;;;;13.77;64.55;102338.56;6240090;22;45390;-93
2022/03/25 03:00:13;;;;;;;;;52.00;37.00;;;;;13.64;64.73;102326.41;6213224;22;45898;-92
2022/03/25 03:02:39;;;;;;;;;54.75;39.25;;;;;13.77;65.24;102356.13;6241410;22;45270;-92
2022/03/25 03:05:08;;;;;;;;;56.25;43.25;;;;;13.69;65.83;102350.41;6237881;22;45358;-92
2022/03/25 03:07:37;;;;;;;;;44.50;37.50;;;;;13.58;65.21;102348.03;6241537;22;45486;-92
2022/03/25 03:10:08;;;;;;;;;54.00;42.00;;;;;13.62;65.88;102357.06;6212251;22;47227;-92
2022/03/25 03:12:34;;;;;;;;;52.75;40.75;;;;;13.49;65.92;102350.13;6214111;22;45254;-92
2022/03/25 03:15:00;;;;;;;;;53.50;40.50;;;;;13.45;65.86;102350.78;6239031;22;45318;-93
2022/03/25 03:17:27;;;;;;;;;49.25;38.50;;;;;13.41;66.23;102358.50;6213648;22;45456;-93
2022/03/25 03:19:52;;;;;;;;;50.00;39.50;;;;;13.39;66.42;102364.50;6237426;22;47275;-92
2022/03/25 03:22:18;;;;;;;;;48.75;37.00;;;;;13.30;66.37;102360.47;6238854;22;45976;-92
2022/03/25 03:24:44;;;;;;;;;52.25;39.50;;;;;13.24;66.72;102344.31;6238942;22;45383;-93
2022/03/25 03:27:10;;;;;;;;;57.50;42.25;;;;;13.16;67.13;102340.28;6241648;22;45314;-92
2022/03/25 03:29:36;;;;;;;;;53.00;40.75;;;;;13.18;66.95;102350.09;6213225;22;48092;-93
2022/03/25 03:32:02;;;;;;;;;49.00;37.25;;;;;13.14;67.03;102352.47;6238748;22;45326;-92
2022/03/25 03:34:28;;;;;;;;;47.75;39.50;;;;;13.10;67.57;102345.16;6212216;22;45330;-93
2022/03/25 03:36:53;;;;;;;;;52.00;39.75;;;;;13.05;67.67;102345.81;6213813;22;45640;-92
2022/03/25 03:39:18;;;;;;;;;53.25;40.50;;;;;12.96;68.12;102340.88;6212641;22;48336;-93
2022/03/25 03:41:44;;;;;;;;;51.25;38.50;;;;;12.93;68.12;102345.06;6239278;22;45869;-93
2022/03/25 03:44:09;;;;;;;;;41.75;38.50;;;;;12.89;68.31;102346.59;6213887;22;45270;-92
2022/03/25 03:46:35;;;;;;;;;46.75;37.00;;;;;12.86;68.75;102343.75;6241204;22;45242;-91
2022/03/25 03:49:01;;;;;;;;;47.75;38.50;;;;;12.82;69.37;102349.66;6218773;22;47642;-92
2022/03/25 03:51:26;;;;;;;;;41.50;35.50;;;;;12.80;68.85;102348.66;6239578;22;45457;-91
2022/03/25 03:53:52;;;;;;;;;41.00;35.75;;;;;12.74;69.34;102350.09;6265288;22;45379;-91
2022/03/25 03:56:17;;;;;;;;;41.00;38.00;;;;;12.62;69.46;102334.47;6266291;22;45395;-90
2022/03/25 03:58:42;;;;;;;;;49.50;36.75;;;;;12.58;69.96;102336.78;6242909;22;46506;-91
2022/03/25 04:01:08;;;;;;;;;41.75;34.75;;;;;12.61;70.24;102339.59;6246560;22;45400;-91
2022/03/25 04:03:33;;;;;;;;;53.50;40.00;;;;;12.61;70.21;102345.78;6293025;22;44772;-92
2022/03/25 04:06:00;;;;;;;;;51.00;40.25;;;;;12.60;70.51;102343.97;6269615;22;44781;-91
2022/03/25 04:08:25;;;;;;;;;50.25;40.25;;;;;12.57;70.69;102341.16;6288187;22;47120;-93
2022/03/25 04:10:51;;;;;;;;;51.25;37.50;;;;;12.55;70.78;102348.03;6281100;22;44888;-92
2022/03/25 04:13:16;;;;;;;;;42.75;36.75;;;;;12.49;70.93;102343.31;6240859;22;45318;-92
2022/03/25 04:15:41;;;;;;;;;44.00;38.50;;;;;12.46;70.78;102350.09;6239116;22;45366;-92
2022/03/25 04:18:08;;;;;;;;;54.50;40.25;;;;;12.49;70.92;102355.56;6265119;22;47719;-92
2022/03/25 04:20:34;;;;;;;;;52.00;39.50;;;;;12.38;71.16;102341.69;6239856;22;45270;-92
2022/03/25 04:23:00;;;;;;;;;48.75;38.25;;;;;12.40;71.58;102353.22;6265201;22;45288;-92
2022/03/25 04:25:25;;;;;;;;;48.50;39.75;;;;;12.28;72.04;102342.84;6264580;22;45639;-92
2022/03/25 04:27:58;;;;;;;;;42.75;35.75;;;;;12.39;72.18;102354.97;6241357;22;46347;-92
2022/03/25 04:30:26;;;;;;;;;44.75;37.50;;;;;12.27;72.22;102346.28;6263506;22;45416;-92
2022/03/25 04:32:52;;;;;;;;;44.50;37.75;;;;;12.29;72.41;102364.00;6265164;22;45312;-92
2022/03/25 04:35:20;;;;;;;;;49.75;38.75;;;;;12.27;72.05;102357.72;6237437;22;45512;-91
2022/03/25 04:37:46;;;;;;;;;44.50;39.00;;;;;12.25;72.12;102361.97;6264650;22;46251;-92
2022/03/25 04:40:13;;;;;;;;;47.25;38.75;;;;;12.18;72.47;102355.44;6238219;22;45290;-93
2022/03/25 04:42:38;;;;;;;;;35.00;31.25;;;;;12.16;72.61;102358.75;6239131;22;45409;-92
2022/03/25 04:45:05;;;;;;;;;50.00;40.50;;;;;12.17;72.34;102355.31;6264447;22;45277;-93
2022/03/25 04:47:30;;;;;;;;;43.75;38.25;;;;;12.13;73.18;102356.84;6265024;22;46915;-93
2022/03/25 04:49:56;;;;;;;;;43.00;39.00;;;;;12.17;72.60;102365.84;6237588;22;45439;-92
2022/03/25 04:52:21;;;;;;;;;52.50;41.25;;;;;12.14;73.04;102371.81;6265855;22;45293;-92
2022/03/25 04:54:47;;;;;;;;;45.00;37.75;;;;;12.15;73.05;102378.91;6239059;22;45365;-92
2022/03/25 04:57:12;;;;;;;;;51.50;38.75;;;;;12.12;73.34;102373.41;6239272;22;47240;-93
2022/03/25 04:59:37;;;;;;;;;50.50;39.00;;;;;12.11;73.41;102382.09;6264411;22;46134;-93
2022/03/25 05:02:03;;;;;;;;;48.00;38.75;;;;;11.99;73.75;102362.88;6264915;22;45360;-93
2022/03/25 05:04:28;;;;;;;;;48.75;38.25;;;;;12.02;73.61;102382.41;6239934;22;45799;-93
2022/03/25 05:06:54;;;;;;;;;52.50;38.75;;;;;11.91;73.54;102371.19;6264691;22;48042;-92
2022/03/25 05:09:19;;;;;;;;;54.50;40.00;;;;;11.94;74.05;102378.38;6264392;22;45693;-92
2022/03/25 05:11:45;;;;;;;;;50.25;39.50;;;;;11.87;74.09;102374.44;6265381;22;45282;-92
2022/03/25 05:14:10;;;;;;;;;53.00;41.75;;;;;11.82;74.13;102370.56;6240488;22;45412;-92
2022/03/25 05:16:36;;;;;;;;;46.75;38.00;;;;;11.83;74.18;102377.63;6264579;22;47802;-92
2022/03/25 05:19:02;;;;;;;;;55.75;41.75;;;;;11.83;74.18;102393.44;6263012;22;45732;-93
2022/03/25 05:21:28;;;;;;;;;52.50;37.00;;;;;11.66;74.06;102363.38;6240973;22;45210;-92
2022/03/25 05:23:53;;;;;;;;;53.25;38.25;;;;;11.75;74.42;102384.13;6240780;22;45305;-93
2022/03/25 05:26:20;;;;;;;;;48.50;38.00;;;;;11.67;74.64;102371.38;6264726;22;47126;-93
2022/03/25 05:28:45;;;;;;;;;54.00;37.50;;;;;11.69;74.88;102385.53;6238166;22;45539;-93
2022/03/25 05:31:11;;;;;;;;;44.25;35.75;;;;;11.67;74.73;102383.63;6239274;22;45465;-93
2022/03/25 05:33:37;;;;;;;;;52.50;39.50;;;;;11.57;74.81;102364.56;6237688;22;45425;-92
2022/03/25 05:36:03;;;;;;;;;47.25;34.75;;;;;11.60;75.38;102383.19;6240176;22;46144;-92
2022/03/25 05:38:30;;;;;;;;;53.00;41.75;;;;;11.57;75.33;102376.84;6239963;22;45784;-93
2022/03/25 05:40:56;;;;;;;;;46.50;37.00;;;;;11.50;75.33;102376.41;6240381;22;45365;-92
2022/03/25 05:43:21;;;;;;;;;50.50;37.50;;;;;11.55;75.52;102381.97;6239771;22;45243;-93
2022/03/25 05:45:46;;;;;;;;;45.25;37.25;;;;;11.50;75.57;102388.63;6239112;22;48227;-92
2022/03/25 05:48:12;;;;;;;;;48.25;39.00;;;;;11.47;76.05;102389.34;6265315;22;45475;-93
2022/03/25 05:50:37;;;;;;;;;53.75;41.25;;;;;11.43;76.43;102376.81;6239166;22;45320;-92
2022/03/25 05:53:02;;;;;;;;;48.50;38.75;;;;;11.43;76.37;102389.03;6214721;22;45257;-92
2022/03/25 05:55:28;;;;;;;;;47.50;39.25;;;;;11.38;76.01;102384.38;6214028;22;47990;-93
2022/03/25 05:57:53;;;;;;;;;42.25;38.00;;;;;11.36;76.67;102385.06;6214076;22;45576;-93
2022/03/25 06:00:19;;;;;;;;;46.75;37.75;;;;;11.43;76.46;102399.53;6239746;22;45731;-92
2022/03/25 06:02:45;;;;;;;;;46.75;39.00;;;;;11.46;76.40;102405.03;6242348;22;45224;-92
2022/03/25 06:05:11;;;;;;;;;47.75;41.00;;;;;11.40;76.89;102388.00;6240633;22;46351;-93
2022/03/25 06:07:38;;;;;;;;;58.00;42.00;;;;;11.54;77.36;102414.34;6214034;22;45309;-92
2022/03/25 06:10:08;;;;;;;;;39.00;35.00;;;;;11.51;77.38;102394.03;6214425;22;45376;-92
2022/03/25 06:12:34;;;;;;;;;49.00;39.25;;;;;11.47;77.41;102394.59;6214341;22;45470;-91
2022/03/25 06:15:00;;;;;;;;;56.75;42.50;;;;;11.50;77.66;102404.41;6213958;22;47932;-93
2022/03/25 06:17:28;;;;;;;;;53.50;39.00;;;;;11.54;77.76;102408.19;6239689;22;45476;-92
2022/03/25 06:19:54;;;;;;;;;44.75;37.50;;;;;11.52;78.33;102397.53;6213085;22;45377;-91
2022/03/25 06:22:19;;;;;;;;;49.50;40.00;;;;;11.55;78.49;102403.00;6214769;22;45502;-92
2022/03/25 06:24:45;;;;;;;;;57.00;39.75;;;;;11.62;78.75;102415.75;6240960;22;46842;-92
2022/03/25 06:27:10;;;;;;;;;53.75;40.50;;;;;11.68;78.60;102419.63;6213949;22;45774;-92
2022/03/25 06:29:37;;;;;;;;;50.50;39.00;;;;;11.77;78.68;102428.16;6214252;22;45447;-92
2022/03/25 06:32:05;;;;;;;;;56.25;43.00;;;;;11.78;79.23;102411.53;6242341;22;45254;-92
2022/03/25 06:34:30;;;;;;;;;55.25;40.50;;;;;11.83;79.62;102414.47;6237704;22;47253;-92
2022/03/25 06:36:56;;;;;;;;;49.25;37.25;;;;;11.89;79.32;102409.63;6239265;22;45384;-92
2022/03/25 06:39:21;;;;;;;;;55.00;42.75;;;;;12.04;79.43;102427.25;6239512;22;45375;-92
2022/03/25 06:41:46;;;;;;;;;51.00;41.00;;;;;12.10;80.20;102411.88;6213696;22;45322;-92
2022/03/25 06:44:12;;;;;;;;;56.25;42.75;;;;;12.26;80.17;102434.91;6241306;22;45376;-92
2022/03/25 06:46:38;;;;;;;;;46.50;36.00;;;;;12.34;80.19;102432.78;6237083;22;45397;-92
2022/03/25 06:49:04;;;;;;;;;51.00;40.00;;;;;12.35;79.97;102424.03;6244655;22;45317;-92
2022/03/25 06:51:29;;;;;;;;;50.75;40.00;;;;;12.45;80.11;102430.81;6241311;22;45429;-92
2022/03/25 06:53:55;;;;;;;;;48.50;40.75;;;;;12.54;79.83;102424.34;6270417;22;47176;-92
2022/03/25 06:56:20;;;;;;;;;53.75;40.00;;;;;12.71;79.50;102441.22;6264652;22;45419;-92
2022/03/25 06:58:46;;;;;;;;;49.50;38.00;;;;;12.79;79.71;102439.06;6239992;22;45260;-92
2022/03/25 07:01:12;;;;;;;;;46.25;39.00;;;;;12.84;80.57;102438.56;6238455;22;45271;-91
2022/03/25 07:03:38;;;;;;;;;50.25;41.25;;;;;12.95;79.30;102430.41;6262098;22;47171;-90
2022/03/25 07:06:04;;;;;;;;;54.25;42.75;;;;;13.11;80.27;102440.19;6241262;22;45309;-91
2022/03/25 07:08:30;;;;;;;;;58.50;42.75;;;;;13.18;79.63;102441.47;6263658;22;45282;-90
2022/03/25 07:10:56;;;;;;;;;53.75;40.00;;;;;13.27;78.46;102435.88;6237577;22;45480;-89
2022/03/25 07:13:22;;;;;;;;;54.00;40.75;;;;;13.30;79.30;102443.94;6240336;22;45590;-91
2022/03/25 07:15:48;;;;;;;;;58.75;45.00;;;;;13.38;78.04;102442.69;6240342;22;45305;-90
2022/03/25 07:18:13;;;;;;;;;59.75;42.75;;;;;13.47;78.46;102438.81;6265797;22;45402;-89
2022/03/25 07:20:38;;;;;;;;;53.50;41.25;;;;;13.59;79.52;102441.31;6269019;22;45382;-90
2022/03/25 07:23:04;;;;;;;;;51.00;40.00;;;;;13.68;78.09;102441.88;6266169;22;47691;-88
2022/03/25 07:25:31;;;;;;;;;60.25;44.25;;;;;13.73;77.56;102440.44;6239842;22;45250;-86
2022/03/25 07:27:57;;;;;;;;;53.50;44.00;;;;;13.85;78.27;102445.50;6240969;22;45278;-88
2022/03/25 07:30:22;;;;;;;;;57.00;43.50;;;;;13.92;78.58;102451.13;6263896;22;45437;-89
2022/03/25 07:32:48;;;;;;;;;58.50;44.00;;;;;14.04;78.70;102446.59;6240482;22;45292;-89
2022/03/25 07:35:16;;;;;;;;;60.75;42.25;;;;;14.16;77.80;102456.97;6237904;22;45218;-89
2022/03/25 07:37:43;;;;;;;;;59.25;46.00;;;;;14.19;77.32;102443.94;6240397;22;45320;-89
2022/03/25 07:40:10;;;;;;;;;53.50;41.75;;;;;14.33;76.59;102454.38;6239325;22;45417;-89
2022/03/25 07:42:37;;;;;;;;;54.50;44.00;;;;;14.41;77.79;102460.09;6242243;22;46423;-89
2022/03/25 07:45:04;;;;;;;;;54.00;43.50;;;;;14.51;77.34;102453.59;6271497;22;45234;-89
2022/03/25 07:47:32;;;;;;;;;59.75;47.25;;;;;14.57;77.04;102453.03;6257609;22;45316;-89
2022/03/25 07:49:59;;;;;;;;;58.75;46.00;;;;;14.75;76.22;102459.38;6260472;22;45269;-88
2022/03/25 07:52:24;;;;;;;;;60.00;44.00;;;;;14.75;76.12;102458.44;6264920;22;45449;-89
2022/03/25 07:54:50;;;;;;;;;55.25;41.75;;;;;14.89;76.28;102468.91;6252722;22;45422;-88
2022/03/25 07:57:15;;;;;;;;;56.75;45.25;;;;;14.97;74.39;102459.69;6252259;22;45425;-88
2022/03/25 07:59:41;;;;;;;;;57.50;43.50;;;;;15.06;73.50;102469.84;6251592;22;45403;-88
2022/03/25 08:02:06;;;;;;;;;60.50;46.50;;;;;15.12;73.15;102467.53;6251572;22;45250;-88
2022/03/25 08:04:32;;;;;;;;;61.75;45.25;;;;;15.17;73.04;102465.13;6222938;22;46222;-88
2022/03/25 08:06:57;;;;;;;;;57.25;44.50;;;;;15.22;72.44;102475.97;6247518;22;45411;-89
2022/03/25 08:09:23;;;;;;;;;59.00;43.75;;;;;15.28;72.76;102469.25;6245016;22;49098;-88
2022/03/25 08:11:48;;;;;;;;;56.25;43.75;;;;;15.43;72.67;102475.28;6251298;22;45445;-89
2022/03/25 08:14:22;;;;;;;;;59.50;44.25;;;;;15.61;72.31;102481.56;6256616;22;45175;-88
2022/03/25 08:16:51;;;;;;;;;57.00;44.25;;;;;15.60;72.53;102473.53;6247090;22;45380;-89
2022/03/25 08:19:16;;;;;;;;;58.25;46.50;;;;;15.72;72.40;102468.00;6212264;22;45412;-89
2022/03/25 08:21:41;;;;;;;;;57.50;42.25;;;;;15.84;72.65;102476.56;6241641;22;45391;-89
2022/03/25 08:29:36;;;;;;;;;53.25;43.75;;;;;16.14;71.05;102472.75;6242768;22;45197;-89
2022/03/25 08:32:02;;;;;;;;;54.00;41.25;;;;;16.26;71.23;102482.16;6241947;22;45495;-89
2022/03/25 08:34:27;;;;;;;;;52.00;35.00;;;;;16.29;71.00;102471.69;6238618;22;45229;-89
2022/03/25 08:36:53;;;;;;;;;58.00;44.50;;;;;16.40;70.72;102475.78;6213659;22;45520;-89
2022/03/25 08:39:18;;;;;;;;;64.00;48.25;;;;;16.51;71.13;102467.47;6239666;22;45382;-89
2022/03/25 08:41:43;;;;;;;;;61.50;43.00;;;;;16.60;70.92;102474.94;6237929;22;51099;-89
2022/03/25 08:44:10;;;;;;;;;56.00;44.75;;;;;16.69;70.42;102470.09;6240135;22;45285;-89
2022/03/25 08:46:36;;;;;;;;;47.75;40.00;;;;;16.80;70.55;102467.03;6240298;22;45278;-89
2022/03/25 08:49:03;;;;;;;;;56.25;43.75;;;;;16.93;70.37;102481.78;6237020;22;45381;-89
2022/03/25 08:51:28;;;;;;;;;63.00;46.00;;;;;16.93;70.01;102476.47;6239635;22;45444;-90
2022/03/25 08:53:54;;;;;;;;;62.50;46.25;;;;;17.02;69.70;102481.28;6237603;22;45369;-89
2022/03/25 08:56:20;;;;;;;;;54.50;44.50;;;;;17.13;69.77;102474.75;6212805;22;45250;-89
2022/03/25 08:58:46;;;;;;;;;63.50;47.25;;;;;17.17;69.51;102470.50;6239979;22;45326;-89
2022/03/25 09:01:11;;;;;;;;;57.25;43.75;;;;;17.29;69.77;102473.72;6240559;22;45397;-89
2022/03/25 09:03:36;;;;;;;;;59.75;44.50;;;;;17.39;69.26;102471.50;6238319;22;46730;-89
2022/03/25 09:06:03;;;;;;;;;61.75;45.00;;;;;17.47;68.74;102475.38;6240009;22;45324;-89
2022/03/25 09:08:28;;;;;;;;;52.75;43.00;;;;;17.50;68.62;102478.19;6240496;22;45360;-89
2022/03/25 09:10:54;;;;;;;;;59.50;44.00;;;;;17.56;68.58;102473.97;6241234;22;45301;-89
2022/03/25 09:13:19;;;;;;;;;58.50;45.00;;;;;17.68;68.52;102481.59;6241628;22;45321;-89
2022/03/25 09:15:46;;;;;;;;;60.75;48.25;;;;;17.73;68.09;102470.31;6241141;22;45290;-89
2022/03/25 09:18:12;;;;;;;;;59.25;45.00;;;;;17.82;67.02;102476.88;6242137;22;45354;-90
2022/03/25 09:20:38;;;;;;;;;63.25;47.75;;;;;17.86;67.48;102478.81;6239733;22;45322;-90
2022/03/25 09:23:03;;;;;;;;;63.75;46.25;;;;;17.93;67.05;102474.69;6214032;22;45858;-90
2022/03/25 09:25:30;;;;;;;;;58.00;46.25;;;;;18.01;67.22;102470.59;6241793;22;45272;-89
2022/03/25 09:27:55;;;;;;;;;56.50;44.50;;;;;18.14;66.73;102474.66;6213973;22;45396;-89
2022/03/25 09:30:21;;;;;;;;;60.00;45.25;;;;;18.23;66.51;102476.84;6240438;22;45314;-90
2022/03/25 09:32:46;;;;;;;;;54.75;44.25;;;;;18.32;66.80;102473.66;6221691;22;45296;-89
2022/03/25 09:35:13;;;;;;;;;60.00;44.75;;;;;18.41;66.61;102466.03;6244186;22;45444;-90
2022/03/25 09:37:48;;;;;;;;;59.75;45.00;;;;;18.60;66.69;102473.84;6240639;22;45423;-89
2022/03/25 09:40:23;;;;;;;;;62.25;48.75;;;;;18.81;65.89;102470.22;6241549;22;45447;-90
2022/03/25 09:42:51;;;;;;;;;61.75;46.50;;;;;18.85;66.02;102475.72;6241858;22;45367;-88
2022/03/25 09:45:18;;;;;;;;;64.50;47.50;;;;;18.89;66.02;102470.53;6245357;22;45491;-88
2022/03/25 09:47:45;;;;;;;;;61.75;48.25;;;;;18.95;65.94;102461.00;6242595;22;45452;-87
2022/03/25 09:50:13;;;;;;;;;55.50;45.00;;;;;19.06;65.78;102463.16;6239052;22;46339;-88
2022/03/25 09:52:42;;;;;;;;;62.00;48.00;;;;;19.17;65.60;102464.47;6247395;22;45278;-88
2022/03/25 09:55:08;;;;;;;;;65.00;48.75;;;;;19.23;64.19;102468.22;6241575;22;45386;-89
2022/03/25 09:57:34;;;;;;;;;35.25;18.00;;;;;19.29;64.81;102461.41;6243127;22;45321;-89
2022/03/25 09:59:59;;;;;;;;;60.00;47.25;;;;;19.38;64.07;102450.16;6242109;22;46289;-89
2022/03/25 10:02:25;;;;;;;;;59.00;46.25;;;;;19.45;64.61;102453.97;6240001;22;45234;-88
2022/03/25 10:04:51;;;;;;;;;61.75;48.75;;;;;19.62;64.98;102465.22;6237005;22;45354;-89
2022/03/25 10:07:24;;;;;;;;;60.75;46.75;;;;;19.83;64.12;102458.81;6242331;22;45415;-90
2022/03/25 10:10:20;;;;;;;;;62.25;47.50;;;;;19.92;63.65;102462.66;6241611;22;45786;-89
2022/03/25 10:12:48;;;;;;;;;55.75;46.25;;;;;19.95;63.59;102458.31;6239646;22;45278;-89
2022/03/25 10:15:21;;;;;;;;;63.75;48.00;;;;;20.05;64.03;102458.66;6242856;22;45302;-89
2022/03/25 10:17:53;;;;;;;;;58.25;46.25;;;;;20.19;63.69;102452.03;6241348;22;45354;-88
2022/03/25 10:20:22;;;;;;;;;56.50;40.75;;;;;20.29;63.23;102452.31;6239374;22;46748;-89
2022/03/25 10:23:01;;;;;;;;;62.50;50.25;;;;;20.44;62.71;102462.56;6242180;22;45278;-88
2022/03/25 10:25:40;;;;;;;;;65.75;48.75;;;;;20.53;62.61;102461.97;6242221;22;45314;-89
2022/03/25 10:28:21;;;;;;;;;62.00;46.00;;;;;20.60;62.44;102441.72;6240555;22;45325;-89
2022/03/25 10:30:52;;;;;;;;;67.00;48.50;;;;;20.66;61.94;102444.56;6241661;22;45623;-91
2022/03/25 10:33:23;;;;;;;;;62.50;49.00;;;;;20.81;61.99;102449.47;6239509;22;45606;-90
2022/03/25 10:36:02;;;;;;;;;66.50;48.75;;;;;20.87;60.94;102446.97;6213855;22;45318;-90
2022/03/25 10:38:41;;;;;;;;;58.75;43.25;;;;;20.99;61.64;102448.19;6217520;22;45526;-90
2022/03/25 10:41:07;;;;;;;;;63.50;49.75;;;;;21.01;61.97;102448.22;6251263;22;46228;-89
2022/03/25 10:43:32;;;;;;;;;60.50;47.00;;;;;21.10;61.76;102445.88;6248407;22;45217;-90
2022/03/25 10:45:58;;;;;;;;;62.75;49.75;;;;;21.26;61.50;102449.00;6227839;22;45269;-89
2022/03/25 10:48:27;;;;;;;;;60.75;48.25;;;;;21.32;61.56;102444.72;6241385;22;45319;-88
2022/03/25 10:51:11;;;;;;;;;61.00;46.75;;;;;21.53;61.29;102446.16;6240151;22;45383;-91
2022/03/25 10:53:38;;;;;;;;;59.25;46.00;;;;;21.57;61.28;102440.91;6240698;22;45327;-88
2022/03/25 10:56:10;;;;;;;;;59.25;47.00;;;;;21.64;60.95;102448.22;6241691;22;45328;-89
2022/03/25 10:58:37;;;;;;;;;64.25;50.50;;;;;21.70;60.27;102442.13;6248956;22;45170;-91
2022/03/25 11:01:05;;;;;;;;;58.50;47.00;;;;;21.79;60.89;102439.69;6243820;22;46100;-91
2022/03/25 11:03:31;;;;;;;;;65.25;47.00;;;;;21.90;60.43;102449.78;6244544;22;45272;-93
2022/03/25 11:05:56;;;;;;;;;57.00;46.00;;;;;21.97;59.54;102439.28;6246714;22;45214;-91
2022/03/25 11:08:22;;;;;;;;;60.00;44.50;;;;;22.11;59.96;102444.06;6215722;22;45475;-91
2022/03/25 11:10:48;;;;;;;;;49.50;37.25;;;;;22.23;59.72;102438.09;6214251;22;46848;-90
2022/03/25 11:13:13;;;;;;;;;59.50;47.25;;;;;22.32;58.96;102445.41;6244617;22;45650;-91
2022/03/25 11:15:39;;;;;;;;;57.50;42.00;;;;;22.42;58.48;102428.72;6240093;22;45297;-90
2022/03/25 11:18:06;;;;;;;;;59.00;46.00;;;;;22.51;58.60;102441.41;6240032;22;45472;-88
2022/03/25 11:20:31;;;;;;;;;55.75;42.25;;;;;22.56;57.71;102425.44;6240069;22;45341;-89
2022/03/25 11:23:06;;;;;;;;;54.25;41.00;;;;;22.78;57.23;102428.63;6242439;22;45251;-90
2022/03/25 11:25:37;;;;;;;;;56.50;45.25;;;;;22.81;56.84;102419.72;6242418;22;45305;-89
2022/03/25 11:28:08;;;;;;;;;59.50;46.00;;;;;22.91;56.24;102421.72;6242353;22;45326;-87
2022/03/25 11:30:35;;;;;;;;;53.50;43.25;;;;;22.94;56.67;102415.53;6244126;22;45503;-88
2022/03/25 11:33:03;;;;;;;;;55.00;42.75;;;;;23.00;56.23;102423.72;6246630;22;45356;-88
2022/03/25 11:35:33;;;;;;;;;55.00;45.00;;;;;23.13;56.52;102426.63;6245558;22;45205;-88
2022/03/25 11:38:11;;;;;;;;;55.75;44.75;;;;;23.32;55.47;102419.84;6255375;22;45337;-89
2022/03/25 11:40:42;;;;;;;;;56.25;45.50;;;;;23.28;55.95;102416.22;6221978;22;47070;-87
2022/03/25 11:43:20;;;;;;;;;56.25;44.75;;;;;23.53;55.99;102421.13;6249457;22;45323;-86
2022/03/25 11:46:03;;;;;;;;;55.50;44.50;;;;;23.59;54.75;102407.84;6247970;22;45501;-88
2022/03/25 11:48:28;;;;;;;;;58.00;43.00;;;;;23.62;55.14;102415.94;6242185;22;45282;-87
2022/03/25 11:50:55;;;;;;;;;58.00;46.75;;;;;23.79;55.83;102412.63;6213396;22;46682;-87
2022/03/25 11:53:22;;;;;;;;;57.75;43.00;;;;;23.90;55.05;102412.81;6239822;22;45299;-87
2022/03/25 11:56:03;;;;;;;;;58.00;45.00;;;;;24.13;54.27;102406.91;6240038;22;45293;-87
2022/03/25 11:58:30;;;;;;;;;53.75;41.25;;;;;24.19;54.85;102398.06;6239262;22;45343;-88
2022/03/25 12:01:03;;;;;;;;;58.25;44.25;;;;;24.49;55.22;102406.53;6238792;22;45313;-91
2022/03/25 12:03:47;;;;;;;;;59.50;45.25;;;;;24.74;54.54;102402.38;6238431;22;45380;-87
2022/03/25 12:06:13;;;;;;;;;61.50;44.75;;;;;24.81;54.89;102405.16;6239681;22;45226;-88
2022/03/25 12:08:39;;;;;;;;;59.25;44.50;;;;;25.03;53.68;102400.03;6236285;22;45357;-87
2022/03/25 12:11:11;;;;;;;;;54.50;45.00;;;;;25.33;53.76;102390.50;6243395;22;45510;-89
2022/03/25 12:13:52;;;;;;;;;58.25;43.50;;;;;25.63;52.32;102388.06;6241384;22;45392;-88
2022/03/25 12:16:45;;;;;;;;;62.25;46.25;;;;;26.02;53.63;102382.09;6213948;22;45361;-88
2022/03/25 12:19:44;;;;;;;;;57.25;45.50;;;;;26.48;52.93;102384.16;6211828;22;45498;-88
2022/03/25 12:22:19;;;;;;;;;55.75;43.25;;;;;26.99;53.07;102385.22;6239252;22;46628;-89
2022/03/25 12:24:50;;;;;;;;;55.25;44.25;;;;;27.45;52.05;102378.09;6243809;22;45253;-88
2022/03/25 12:27:15;;;;;;;;;58.00;44.50;;;;;27.83;52.51;102380.81;6241272;22;45278;-88
2022/03/25 12:29:42;;;;;;;;;56.00;43.25;;;;;28.40;51.82;102374.34;6241014;22;45321;-88
2022/03/25 12:32:32;;;;;;;;;58.50;47.50;;;;;29.21;52.13;102372.16;6242237;22;46466;-88
2022/03/25 12:35:16;;;;;;;;;60.00;46.25;;;;;30.05;50.58;102366.91;6247620;22;45306;-86